Extreme hitte van: 09-08-2020 02:59 tot: 10-08-2020 23:59 waarschuwing voor: Extreme hitte niveau: Rood info button

Tervuren park Meer informatie Tervuren park


Tervuren markt Meer informatie Tervuren markt


Bezoek onze andere website:

Meteotemplate

Home Weather Station

Saratoga


Lokaal brand risico:
CBI


Regionaal brand risico: Meer informatie



METAR rapporten vliegvelden

   
EBBR - Brussels
Gewijzigd: Aug 9 2020 3:50 am
Helder  
Helder  
   Wind: NNO 3.7 km/h
Wind: NNO 3.7 km/h
Temperatuur: 23°C
Dauwpunt: 16°C
Vochtigheid: 65%
Barometer: 1018 mb
Zicht: meer dan 10 km
Bewolking: Helder
EBBR 090150Z 02002KT CAVOK 23/16 Q1018 NOSIG
EBAW - Antwerp
Gewijzigd: Aug 9 2020 3:50 am
Helder  
Helder  
   Wind: varieert 3.7 km/h
Wind: varieert 3.7 km/h
Temperatuur: 25°C
Dauwpunt: 16°C
Vochtigheid: 57%
Barometer: 1018 mb
Zicht: meer dan 10 km
Bewolking: Helder
EBAW 090150Z AUTO VRB02KT CAVOK 25/16 Q1018
EHBK - Maastricht
Gewijzigd: Aug 9 2020 3:55 am
Gedeeltelijk bewolkt  
Gedeeltelijk bewolkt  
   Wind: NO 13 km/h
Wind: NO 13 km/h
Temperatuur: 24°C
Dauwpunt: 14°C
Vochtigheid: 54%
Barometer: 1017 mb
Bewolking: Gedeeltelijk bewolkt
Zicht: meer dan 10 km
Bewolking: Gedeeltelijk bewolkt
EHBK 090155Z AUTO 05007KT 9999 NSC 24/14 Q1017
EDLV - Nijmegen
Gewijzigd: Aug 8 2020 11:50 pm
Verouderd
Helder  
Helder  
   Wind: NNO 9.3 km/h
Wind: NNO 9.3 km/h
Temperatuur: 27°C
Gevoelstemperatuur: 27°C
Dauwpunt: 15°C
Vochtigheid: 48%
Barometer: 1018 mb
Zicht: meer dan 10 km
Bewolking: Helder
EDLV 082150Z 03005KT 350V080 CAVOK 27/15 Q1018
EHRD - Rotterdam
Gewijzigd: Aug 9 2020 3:55 am
Licht bewolkt  
Licht bewolkt  
   Wind: NNO 3.7 km/h
Wind: NNO 3.7 km/h
Temperatuur: 23°C
Dauwpunt: 19°C
Vochtigheid: 78%
Barometer: 1018 mb
Bewolking: Licht bewolkt
Zicht: meer dan 10 km
Bewolking: Licht bewolkt 457.2 m
EHRD 090155Z AUTO 02002KT 9999 FEW015CB 23/19 Q1018 NOSIG
 

Script ontwikkeld door  Saratoga-weather.org Aangepast voor de template door  Weerstation Leuven

U vindt ons ook hier:

Het Weer Aktueel

UK Metoffice

European Weather Network

WeatherCloud

Weather Underground

Benelux Weer Netwerk

AWEKAS

Citizen Weather Observer Program (CWOP)

HAMweather, WeatherForYou, PWS Weather

Apparatuur in gebruik:

Weerstation
Davis VP2

Weerprogramma
Meteobridge

Weercomputer
TP-Link MR3020

Davis VP2

Meteobridge

TP-Link MR3020